sensor_id;sensor_type;location;lat;lon;timestamp;P1;durP1;ratioP1;P2;durP2;ratioP2
19664;SDS011;9980;51.020;7.772;2023-08-30T00:01:23;7.70;;;6.97;;
19664;SDS011;9980;51.020;7.772;2023-08-30T00:03:50;7.83;;;6.40;;
19664;SDS011;9980;51.020;7.772;2023-08-30T00:06:18;8.73;;;7.80;;
19664;SDS011;9980;51.020;7.772;2023-08-30T00:08:45;6.80;;;6.20;;
19664;SDS011;9980;51.020;7.772;2023-08-30T00:11:12;7.23;;;5.23;;
19664;SDS011;9980;51.020;7.772;2023-08-30T00:13:40;5.37;;;4.87;;
19664;SDS011;9980;51.020;7.772;2023-08-30T00:16:08;9.77;;;6.53;;
19664;SDS011;9980;51.020;7.772;2023-08-30T00:18:35;6.67;;;6.00;;
19664;SDS011;9980;51.020;7.772;2023-08-30T00:21:02;8.27;;;6.93;;
19664;SDS011;9980;51.020;7.772;2023-08-30T00:23:29;7.67;;;6.97;;
19664;SDS011;9980;51.020;7.772;2023-08-30T00:25:56;9.07;;;7.27;;
19664;SDS011;9980;51.020;7.772;2023-08-30T00:28:23;5.73;;;5.07;;
19664;SDS011;9980;51.020;7.772;2023-08-30T00:30:54;5.30;;;4.80;;
19664;SDS011;9980;51.020;7.772;2023-08-30T00:33:22;5.33;;;4.83;;
19664;SDS011;9980;51.020;7.772;2023-08-30T00:35:55;6.40;;;5.03;;
19664;SDS011;9980;51.020;7.772;2023-08-30T00:38:28;7.30;;;5.87;;
19664;SDS011;9980;51.020;7.772;2023-08-30T00:40:55;5.47;;;5.07;;
19664;SDS011;9980;51.020;7.772;2023-08-30T00:43:23;6.40;;;5.90;;
19664;SDS011;9980;51.020;7.772;2023-08-30T00:45:50;7.87;;;7.17;;
19664;SDS011;9980;51.020;7.772;2023-08-30T00:48:19;8.40;;;7.60;;
19664;SDS011;9980;51.020;7.772;2023-08-30T00:50:47;5.03;;;4.63;;
19664;SDS011;9980;51.020;7.772;2023-08-30T00:53:14;5.70;;;5.20;;
19664;SDS011;9980;51.020;7.772;2023-08-30T00:55:41;5.67;;;5.17;;
19664;SDS011;9980;51.020;7.772;2023-08-30T00:58:09;6.07;;;5.50;;
19664;SDS011;9980;51.020;7.772;2023-08-30T01:00:37;6.00;;;5.50;;
19664;SDS011;9980;51.020;7.772;2023-08-30T01:03:08;7.53;;;6.83;;
19664;SDS011;9980;51.020;7.772;2023-08-30T01:05:35;6.47;;;5.80;;
19664;SDS011;9980;51.020;7.772;2023-08-30T01:08:03;5.23;;;4.77;;
19664;SDS011;9980;51.020;7.772;2023-08-30T01:10:35;5.03;;;4.63;;
19664;SDS011;9980;51.020;7.772;2023-08-30T01:13:28;6.20;;;5.70;;
19664;SDS011;9980;51.020;7.772;2023-08-30T01:15:59;6.13;;;5.63;;
19664;SDS011;9980;51.020;7.772;2023-08-30T01:18:28;5.50;;;5.00;;
19664;SDS011;9980;51.020;7.772;2023-08-30T01:21:00;4.47;;;4.07;;
19664;SDS011;9980;51.020;7.772;2023-08-30T01:26:45;4.90;;;4.40;;
19664;SDS011;9980;51.020;7.772;2023-08-30T01:29:37;7.37;;;5.90;;
19664;SDS011;9980;51.020;7.772;2023-08-30T01:32:09;7.40;;;6.63;;
19664;SDS011;9980;51.020;7.772;2023-08-30T01:34:37;6.33;;;5.73;;
19664;SDS011;9980;51.020;7.772;2023-08-30T01:37:07;7.23;;;5.90;;
19664;SDS011;9980;51.020;7.772;2023-08-30T01:39:38;6.23;;;5.73;;
19664;SDS011;9980;51.020;7.772;2023-08-30T01:42:08;7.03;;;6.37;;
19664;SDS011;9980;51.020;7.772;2023-08-30T01:44:36;8.93;;;6.47;;
19664;SDS011;9980;51.020;7.772;2023-08-30T01:47:07;5.50;;;5.03;;
19664;SDS011;9980;51.020;7.772;2023-08-30T01:49:36;4.93;;;4.53;;
19664;SDS011;9980;51.020;7.772;2023-08-30T01:52:06;5.70;;;5.20;;
19664;SDS011;9980;51.020;7.772;2023-08-30T01:54:34;4.73;;;4.37;;
19664;SDS011;9980;51.020;7.772;2023-08-30T01:57:04;6.80;;;6.20;;
19664;SDS011;9980;51.020;7.772;2023-08-30T01:59:31;5.37;;;4.87;;
19664;SDS011;9980;51.020;7.772;2023-08-30T02:01:58;5.87;;;5.27;;
19664;SDS011;9980;51.020;7.772;2023-08-30T02:04:26;4.87;;;4.47;;
19664;SDS011;9980;51.020;7.772;2023-08-30T02:07:04;4.17;;;3.87;;
19664;SDS011;9980;51.020;7.772;2023-08-30T02:09:48;5.20;;;4.80;;
19664;SDS011;9980;51.020;7.772;2023-08-30T02:12:26;4.43;;;4.13;;
19664;SDS011;9980;51.020;7.772;2023-08-30T02:15:01;5.43;;;4.97;;
19664;SDS011;9980;51.020;7.772;2023-08-30T02:17:29;5.50;;;5.00;;
19664;SDS011;9980;51.020;7.772;2023-08-30T02:19:57;6.20;;;4.67;;
19664;SDS011;9980;51.020;7.772;2023-08-30T02:22:24;6.13;;;5.30;;
19664;SDS011;9980;51.020;7.772;2023-08-30T02:24:51;4.93;;;4.53;;
19664;SDS011;9980;51.020;7.772;2023-08-30T02:27:19;5.50;;;5.00;;
19664;SDS011;9980;51.020;7.772;2023-08-30T02:29:46;6.83;;;6.23;;
19664;SDS011;9980;51.020;7.772;2023-08-30T02:32:13;6.67;;;6.07;;
19664;SDS011;9980;51.020;7.772;2023-08-30T02:34:41;9.33;;;6.53;;
19664;SDS011;9980;51.020;7.772;2023-08-30T02:37:08;6.93;;;6.23;;
19664;SDS011;9980;51.020;7.772;2023-08-30T02:39:36;7.80;;;7.03;;
19664;SDS011;9980;51.020;7.772;2023-08-30T02:42:03;6.97;;;4.80;;
19664;SDS011;9980;51.020;7.772;2023-08-30T02:44:30;8.77;;;6.40;;
19664;SDS011;9980;51.020;7.772;2023-08-30T02:46:56;7.13;;;6.53;;
19664;SDS011;9980;51.020;7.772;2023-08-30T02:49:23;6.90;;;6.30;;
19664;SDS011;9980;51.020;7.772;2023-08-30T02:51:50;7.40;;;6.70;;
19664;SDS011;9980;51.020;7.772;2023-08-30T02:54:17;8.03;;;7.23;;
19664;SDS011;9980;51.020;7.772;2023-08-30T02:56:45;12.00;;;7.23;;
19664;SDS011;9980;51.020;7.772;2023-08-30T02:59:12;7.37;;;6.67;;
19664;SDS011;9980;51.020;7.772;2023-08-30T03:01:39;15.60;;;7.57;;
19664;SDS011;9980;51.020;7.772;2023-08-30T03:04:07;5.90;;;5.40;;
19664;SDS011;9980;51.020;7.772;2023-08-30T03:06:34;7.67;;;6.87;;
19664;SDS011;9980;51.020;7.772;2023-08-30T03:09:02;12.10;;;7.37;;
19664;SDS011;9980;51.020;7.772;2023-08-30T03:11:32;20.70;;;7.20;;
19664;SDS011;9980;51.020;7.772;2023-08-30T03:14:00;6.57;;;5.97;;
19664;SDS011;9980;51.020;7.772;2023-08-30T03:16:27;6.07;;;5.47;;
19664;SDS011;9980;51.020;7.772;2023-08-30T03:18:55;10.57;;;7.57;;
19664;SDS011;9980;51.020;7.772;2023-08-30T03:21:22;10.03;;;7.23;;
19664;SDS011;9980;51.020;7.772;2023-08-30T03:23:49;9.77;;;6.67;;
19664;SDS011;9980;51.020;7.772;2023-08-30T03:26:16;8.43;;;7.10;;
19664;SDS011;9980;51.020;7.772;2023-08-30T03:28:44;6.93;;;6.23;;
19664;SDS011;9980;51.020;7.772;2023-08-30T03:33:44;7.23;;;6.63;;
19664;SDS011;9980;51.020;7.772;2023-08-30T03:36:14;11.07;;;7.13;;
19664;SDS011;9980;51.020;7.772;2023-08-30T03:38:43;10.73;;;8.10;;
19664;SDS011;9980;51.020;7.772;2023-08-30T03:41:11;5.10;;;4.70;;
19664;SDS011;9980;51.020;7.772;2023-08-30T03:43:39;22.70;;;5.97;;
19664;SDS011;9980;51.020;7.772;2023-08-30T03:46:07;8.53;;;5.63;;
19664;SDS011;9980;51.020;7.772;2023-08-30T03:48:36;5.93;;;5.43;;
19664;SDS011;9980;51.020;7.772;2023-08-30T03:51:03;6.60;;;6.00;;
19664;SDS011;9980;51.020;7.772;2023-08-30T03:53:31;6.33;;;5.40;;
19664;SDS011;9980;51.020;7.772;2023-08-30T03:55:58;7.87;;;6.70;;
19664;SDS011;9980;51.020;7.772;2023-08-30T03:58:25;8.53;;;7.63;;
19664;SDS011;9980;51.020;7.772;2023-08-30T04:00:53;7.73;;;7.03;;
19664;SDS011;9980;51.020;7.772;2023-08-30T04:03:20;10.20;;;7.10;;
19664;SDS011;9980;51.020;7.772;2023-08-30T04:05:47;7.63;;;6.43;;
19664;SDS011;9980;51.020;7.772;2023-08-30T04:08:20;6.87;;;6.27;;
19664;SDS011;9980;51.020;7.772;2023-08-30T04:10:48;9.17;;;6.87;;
19664;SDS011;9980;51.020;7.772;2023-08-30T04:13:18;6.90;;;6.30;;
19664;SDS011;9980;51.020;7.772;2023-08-30T04:15:45;9.07;;;6.97;;
19664;SDS011;9980;51.020;7.772;2023-08-30T04:18:12;7.23;;;6.60;;
19664;SDS011;9980;51.020;7.772;2023-08-30T04:20:46;5.27;;;4.87;;
19664;SDS011;9980;51.020;7.772;2023-08-30T04:23:14;4.97;;;4.57;;
19664;SDS011;9980;51.020;7.772;2023-08-30T04:25:43;11.30;;;7.00;;
19664;SDS011;9980;51.020;7.772;2023-08-30T04:28:11;8.00;;;7.30;;
19664;SDS011;9980;51.020;7.772;2023-08-30T04:30:38;6.97;;;6.30;;
19664;SDS011;9980;51.020;7.772;2023-08-30T04:33:06;12.00;;;7.10;;
19664;SDS011;9980;51.020;7.772;2023-08-30T04:35:33;7.10;;;6.40;;
19664;SDS011;9980;51.020;7.772;2023-08-30T04:38:01;12.97;;;7.13;;
19664;SDS011;9980;51.020;7.772;2023-08-30T04:40:29;7.27;;;6.23;;
19664;SDS011;9980;51.020;7.772;2023-08-30T04:42:58;27.00;;;8.30;;
19664;SDS011;9980;51.020;7.772;2023-08-30T04:45:26;7.17;;;6.27;;
19664;SDS011;9980;51.020;7.772;2023-08-30T04:47:53;6.23;;;5.73;;
19664;SDS011;9980;51.020;7.772;2023-08-30T04:50:21;29.30;;;8.97;;
19664;SDS011;9980;51.020;7.772;2023-08-30T04:52:48;11.43;;;7.87;;
19664;SDS011;9980;51.020;7.772;2023-08-30T04:55:16;13.83;;;8.03;;
19664;SDS011;9980;51.020;7.772;2023-08-30T04:57:43;7.50;;;6.80;;
19664;SDS011;9980;51.020;7.772;2023-08-30T05:00:13;10.73;;;8.43;;
19664;SDS011;9980;51.020;7.772;2023-08-30T05:02:41;8.70;;;7.80;;
19664;SDS011;9980;51.020;7.772;2023-08-30T05:05:10;9.53;;;7.77;;
19664;SDS011;9980;51.020;7.772;2023-08-30T05:07:37;8.13;;;7.40;;
19664;SDS011;9980;51.020;7.772;2023-08-30T05:10:05;13.07;;;8.57;;
19664;SDS011;9980;51.020;7.772;2023-08-30T05:12:33;7.37;;;6.60;;
19664;SDS011;9980;51.020;7.772;2023-08-30T05:15:01;14.73;;;8.37;;
19664;SDS011;9980;51.020;7.772;2023-08-30T05:17:30;6.63;;;6.03;;
19664;SDS011;9980;51.020;7.772;2023-08-30T05:19:58;9.60;;;7.43;;
19664;SDS011;9980;51.020;7.772;2023-08-30T05:22:24;7.17;;;6.47;;
19664;SDS011;9980;51.020;7.772;2023-08-30T05:24:51;8.23;;;6.53;;
19664;SDS011;9980;51.020;7.772;2023-08-30T05:27:18;9.33;;;8.30;;
19664;SDS011;9980;51.020;7.772;2023-08-30T05:29:46;8.20;;;7.27;;
19664;SDS011;9980;51.020;7.772;2023-08-30T05:32:13;5.47;;;4.97;;
19664;SDS011;9980;51.020;7.772;2023-08-30T05:34:52;6.80;;;6.20;;
19664;SDS011;9980;51.020;7.772;2023-08-30T05:37:38;7.17;;;6.47;;
19664;SDS011;9980;51.020;7.772;2023-08-30T05:40:18;8.23;;;6.23;;
19664;SDS011;9980;51.020;7.772;2023-08-30T05:42:45;9.40;;;7.30;;
19664;SDS011;9980;51.020;7.772;2023-08-30T05:45:12;6.87;;;6.27;;
19664;SDS011;9980;51.020;7.772;2023-08-30T05:47:40;14.73;;;7.63;;
19664;SDS011;9980;51.020;7.772;2023-08-30T05:50:07;10.77;;;7.13;;
19664;SDS011;9980;51.020;7.772;2023-08-30T05:52:35;7.47;;;6.77;;
19664;SDS011;9980;51.020;7.772;2023-08-30T05:55:02;7.77;;;7.03;;
19664;SDS011;9980;51.020;7.772;2023-08-30T05:57:29;9.70;;;7.67;;
19664;SDS011;9980;51.020;7.772;2023-08-30T06:00:00;8.10;;;7.40;;
19664;SDS011;9980;51.020;7.772;2023-08-30T06:02:39;7.57;;;6.87;;
19664;SDS011;9980;51.020;7.772;2023-08-30T06:05:07;8.63;;;7.77;;
19664;SDS011;9980;51.020;7.772;2023-08-30T06:07:34;8.30;;;7.50;;
19664;SDS011;9980;51.020;7.772;2023-08-30T06:10:01;6.43;;;5.83;;
19664;SDS011;9980;51.020;7.772;2023-08-30T06:12:29;12.13;;;8.50;;
19664;SDS011;9980;51.020;7.772;2023-08-30T06:14:56;10.20;;;8.17;;
19664;SDS011;9980;51.020;7.772;2023-08-30T06:17:23;7.97;;;7.17;;
19664;SDS011;9980;51.020;7.772;2023-08-30T06:19:50;10.63;;;8.87;;
19664;SDS011;9980;51.020;7.772;2023-08-30T06:22:18;13.63;;;9.33;;
19664;SDS011;9980;51.020;7.772;2023-08-30T06:24:44;9.73;;;8.20;;
19664;SDS011;9980;51.020;7.772;2023-08-30T06:27:11;10.20;;;9.10;;
19664;SDS011;9980;51.020;7.772;2023-08-30T06:29:38;11.90;;;9.37;;
19664;SDS011;9980;51.020;7.772;2023-08-30T06:32:05;10.63;;;9.53;;
19664;SDS011;9980;51.020;7.772;2023-08-30T06:34:32;10.37;;;9.27;;
19664;SDS011;9980;51.020;7.772;2023-08-30T06:36:59;10.70;;;9.17;;
19664;SDS011;9980;51.020;7.772;2023-08-30T06:39:32;9.63;;;8.63;;
19664;SDS011;9980;51.020;7.772;2023-08-30T06:42:01;10.77;;;9.67;;
19664;SDS011;9980;51.020;7.772;2023-08-30T06:44:29;10.20;;;9.20;;
19664;SDS011;9980;51.020;7.772;2023-08-30T06:46:56;10.73;;;9.50;;
19664;SDS011;9980;51.020;7.772;2023-08-30T06:49:28;11.37;;;10.03;;
19664;SDS011;9980;51.020;7.772;2023-08-30T06:51:55;10.37;;;9.27;;
19664;SDS011;9980;51.020;7.772;2023-08-30T06:54:22;13.17;;;10.77;;
19664;SDS011;9980;51.020;7.772;2023-08-30T06:56:58;10.40;;;9.37;;
19664;SDS011;9980;51.020;7.772;2023-08-30T06:59:26;12.20;;;10.17;;
19664;SDS011;9980;51.020;7.772;2023-08-30T07:01:54;15.20;;;13.03;;
19664;SDS011;9980;51.020;7.772;2023-08-30T07:04:21;13.57;;;11.83;;
19664;SDS011;9980;51.020;7.772;2023-08-30T07:06:48;18.57;;;15.33;;
19664;SDS011;9980;51.020;7.772;2023-08-30T07:09:15;18.87;;;16.07;;
19664;SDS011;9980;51.020;7.772;2023-08-30T07:11:43;17.60;;;15.27;;
19664;SDS011;9980;51.020;7.772;2023-08-30T07:14:13;16.40;;;14.30;;
19664;SDS011;9980;51.020;7.772;2023-08-30T07:16:40;20.27;;;15.80;;
19664;SDS011;9980;51.020;7.772;2023-08-30T07:19:07;20.03;;;17.53;;
19664;SDS011;9980;51.020;7.772;2023-08-30T07:21:36;19.37;;;16.50;;
19664;SDS011;9980;51.020;7.772;2023-08-30T07:24:05;22.70;;;18.13;;
19664;SDS011;9980;51.020;7.772;2023-08-30T07:26:33;24.00;;;18.53;;
19664;SDS011;9980;51.020;7.772;2023-08-30T07:29:01;21.13;;;17.33;;
19664;SDS011;9980;51.020;7.772;2023-08-30T07:31:31;22.03;;;19.57;;
19664;SDS011;9980;51.020;7.772;2023-08-30T07:33:59;21.67;;;18.83;;
19664;SDS011;9980;51.020;7.772;2023-08-30T07:36:29;19.87;;;17.73;;
19664;SDS011;9980;51.020;7.772;2023-08-30T07:39:13;20.83;;;17.80;;
19664;SDS011;9980;51.020;7.772;2023-08-30T07:41:40;24.23;;;19.30;;
19664;SDS011;9980;51.020;7.772;2023-08-30T07:44:07;20.53;;;17.87;;
19664;SDS011;9980;51.020;7.772;2023-08-30T07:46:35;22.53;;;19.37;;
19664;SDS011;9980;51.020;7.772;2023-08-30T07:49:02;25.10;;;18.47;;
19664;SDS011;9980;51.020;7.772;2023-08-30T07:51:29;21.53;;;17.80;;
19664;SDS011;9980;51.020;7.772;2023-08-30T07:53:56;19.00;;;16.93;;
19664;SDS011;9980;51.020;7.772;2023-08-30T07:56:23;19.07;;;17.10;;
19664;SDS011;9980;51.020;7.772;2023-08-30T07:58:50;20.50;;;16.93;;
19664;SDS011;9980;51.020;7.772;2023-08-30T08:01:17;20.30;;;15.67;;
19664;SDS011;9980;51.020;7.772;2023-08-30T08:03:44;17.90;;;15.97;;
19664;SDS011;9980;51.020;7.772;2023-08-30T08:06:30;18.43;;;16.40;;
19664;SDS011;9980;51.020;7.772;2023-08-30T08:08:57;17.33;;;15.53;;
19664;SDS011;9980;51.020;7.772;2023-08-30T08:11:24;16.60;;;14.70;;
19664;SDS011;9980;51.020;7.772;2023-08-30T08:13:52;20.63;;;15.10;;
19664;SDS011;9980;51.020;7.772;2023-08-30T08:16:19;17.33;;;15.50;;
19664;SDS011;9980;51.020;7.772;2023-08-30T08:18:46;16.67;;;14.73;;
19664;SDS011;9980;51.020;7.772;2023-08-30T08:21:16;17.90;;;15.97;;
19664;SDS011;9980;51.020;7.772;2023-08-30T08:23:43;15.47;;;13.90;;
19664;SDS011;9980;51.020;7.772;2023-08-30T08:26:10;18.20;;;15.53;;
19664;SDS011;9980;51.020;7.772;2023-08-30T08:28:37;15.13;;;13.53;;
19664;SDS011;9980;51.020;7.772;2023-08-30T08:31:04;14.83;;;13.23;;
19664;SDS011;9980;51.020;7.772;2023-08-30T08:33:33;14.23;;;12.80;;
19664;SDS011;9980;51.020;7.772;2023-08-30T08:36:00;13.40;;;12.03;;
19664;SDS011;9980;51.020;7.772;2023-08-30T08:38:26;14.13;;;12.20;;
19664;SDS011;9980;51.020;7.772;2023-08-30T08:40:54;13.53;;;11.53;;
19664;SDS011;9980;51.020;7.772;2023-08-30T08:43:33;11.50;;;9.90;;
19664;SDS011;9980;51.020;7.772;2023-08-30T08:46:03;10.87;;;9.77;;
19664;SDS011;9980;51.020;7.772;2023-08-30T08:48:33;11.00;;;9.67;;
19664;SDS011;9980;51.020;7.772;2023-08-30T08:51:06;9.03;;;8.13;;
19664;SDS011;9980;51.020;7.772;2023-08-30T08:53:34;13.33;;;9.70;;
19664;SDS011;9980;51.020;7.772;2023-08-30T08:56:03;8.97;;;8.10;;
19664;SDS011;9980;51.020;7.772;2023-08-30T08:58:35;8.77;;;7.87;;
19664;SDS011;9980;51.020;7.772;2023-08-30T09:01:04;8.73;;;7.83;;
19664;SDS011;9980;51.020;7.772;2023-08-30T09:03:40;7.90;;;7.07;;
19664;SDS011;9980;51.020;7.772;2023-08-30T09:06:08;7.60;;;6.30;;
19664;SDS011;9980;51.020;7.772;2023-08-30T09:08:35;6.57;;;5.87;;
19664;SDS011;9980;51.020;7.772;2023-08-30T09:11:02;7.80;;;5.90;;
19664;SDS011;9980;51.020;7.772;2023-08-30T09:13:29;5.73;;;5.10;;
19664;SDS011;9980;51.020;7.772;2023-08-30T09:15:57;6.80;;;5.67;;
19664;SDS011;9980;51.020;7.772;2023-08-30T09:18:24;7.87;;;5.80;;
19664;SDS011;9980;51.020;7.772;2023-08-30T09:21:07;8.67;;;5.83;;
19664;SDS011;9980;51.020;7.772;2023-08-30T09:23:36;7.00;;;5.80;;
19664;SDS011;9980;51.020;7.772;2023-08-30T09:26:04;8.10;;;5.67;;
19664;SDS011;9980;51.020;7.772;2023-08-30T09:28:41;4.83;;;4.33;;
19664;SDS011;9980;51.020;7.772;2023-08-30T09:31:16;4.70;;;4.30;;
19664;SDS011;9980;51.020;7.772;2023-08-30T09:33:48;4.97;;;4.33;;
19664;SDS011;9980;51.020;7.772;2023-08-30T09:36:15;5.23;;;4.33;;
19664;SDS011;9980;51.020;7.772;2023-08-30T09:38:47;4.93;;;4.10;;
19664;SDS011;9980;51.020;7.772;2023-08-30T09:41:15;4.07;;;3.67;;
19664;SDS011;9980;51.020;7.772;2023-08-30T09:43:43;5.40;;;4.47;;
19664;SDS011;9980;51.020;7.772;2023-08-30T09:46:10;6.03;;;4.60;;
19664;SDS011;9980;51.020;7.772;2023-08-30T09:48:38;5.63;;;4.80;;
19664;SDS011;9980;51.020;7.772;2023-08-30T09:51:07;7.13;;;4.50;;
19664;SDS011;9980;51.020;7.772;2023-08-30T09:53:39;4.30;;;4.00;;
19664;SDS011;9980;51.020;7.772;2023-08-30T09:56:30;5.03;;;3.80;;
19664;SDS011;9980;51.020;7.772;2023-08-30T09:59:02;5.85;;;3.95;;
19664;SDS011;9980;51.020;7.772;2023-08-30T10:01:30;6.10;;;3.90;;
19664;SDS011;9980;51.020;7.772;2023-08-30T10:03:57;6.88;;;3.83;;
19664;SDS011;9980;51.020;7.772;2023-08-30T10:06:27;4.90;;;3.75;;
19664;SDS011;9980;51.020;7.772;2023-08-30T10:08:56;3.92;;;3.53;;
19664;SDS011;9980;51.020;7.772;2023-08-30T10:11:25;8.90;;;3.50;;
19664;SDS011;9980;51.020;7.772;2023-08-30T10:13:55;3.92;;;3.35;;
19664;SDS011;9980;51.020;7.772;2023-08-30T10:16:24;4.47;;;3.87;;
19664;SDS011;9980;51.020;7.772;2023-08-30T10:19:00;4.70;;;3.58;;
19664;SDS011;9980;51.020;7.772;2023-08-30T10:21:44;3.88;;;3.58;;
19664;SDS011;9980;51.020;7.772;2023-08-30T10:24:12;4.53;;;4.10;;
19664;SDS011;9980;51.020;7.772;2023-08-30T10:27:01;4.95;;;3.83;;
19664;SDS011;9980;51.020;7.772;2023-08-30T10:29:34;5.53;;;4.07;;
19664;SDS011;9980;51.020;7.772;2023-08-30T10:32:04;5.43;;;3.83;;
19664;SDS011;9980;51.020;7.772;2023-08-30T10:34:33;4.53;;;4.00;;
19664;SDS011;9980;51.020;7.772;2023-08-30T10:37:03;5.03;;;3.42;;
19664;SDS011;9980;51.020;7.772;2023-08-30T10:39:40;3.72;;;3.42;;
19664;SDS011;9980;51.020;7.772;2023-08-30T10:42:12;4.00;;;3.60;;
19664;SDS011;9980;51.020;7.772;2023-08-30T10:44:48;4.90;;;3.88;;
19664;SDS011;9980;51.020;7.772;2023-08-30T10:47:24;5.43;;;3.80;;
19664;SDS011;9980;51.020;7.772;2023-08-30T10:49:55;4.50;;;3.60;;
19664;SDS011;9980;51.020;7.772;2023-08-30T10:52:26;4.75;;;4.10;;
19664;SDS011;9980;51.020;7.772;2023-08-30T10:55:04;6.82;;;4.35;;
19664;SDS011;9980;51.020;7.772;2023-08-30T10:57:43;5.30;;;4.13;;
19664;SDS011;9980;51.020;7.772;2023-08-30T11:02:45;4.70;;;4.30;;
19664;SDS011;9980;51.020;7.772;2023-08-30T11:05:15;4.63;;;4.22;;
19664;SDS011;9980;51.020;7.772;2023-08-30T11:07:47;6.55;;;4.30;;
19664;SDS011;9980;51.020;7.772;2023-08-30T11:10:16;4.28;;;3.88;;
19664;SDS011;9980;51.020;7.772;2023-08-30T11:12:45;4.30;;;3.95;;
19664;SDS011;9980;51.020;7.772;2023-08-30T11:15:15;4.13;;;3.70;;
19664;SDS011;9980;51.020;7.772;2023-08-30T11:17:43;3.87;;;3.50;;
19664;SDS011;9980;51.020;7.772;2023-08-30T11:20:11;4.35;;;3.50;;
19664;SDS011;9980;51.020;7.772;2023-08-30T11:22:43;4.63;;;3.95;;
19664;SDS011;9980;51.020;7.772;2023-08-30T11:25:13;4.10;;;3.78;;
19664;SDS011;9980;51.020;7.772;2023-08-30T11:27:42;4.57;;;3.67;;
19664;SDS011;9980;51.020;7.772;2023-08-30T11:30:09;4.63;;;3.73;;
19664;SDS011;9980;51.020;7.772;2023-08-30T11:32:38;4.10;;;3.70;;
19664;SDS011;9980;51.020;7.772;2023-08-30T11:35:09;4.67;;;3.60;;
19664;SDS011;9980;51.020;7.772;2023-08-30T11:37:36;4.77;;;4.10;;
19664;SDS011;9980;51.020;7.772;2023-08-30T11:40:04;5.00;;;4.60;;
19664;SDS011;9980;51.020;7.772;2023-08-30T11:42:32;5.17;;;4.67;;
19664;SDS011;9980;51.020;7.772;2023-08-30T11:45:00;5.23;;;4.57;;
19664;SDS011;9980;51.020;7.772;2023-08-30T11:47:28;5.37;;;4.97;;
19664;SDS011;9980;51.020;7.772;2023-08-30T11:49:56;5.50;;;5.00;;
19664;SDS011;9980;51.020;7.772;2023-08-30T11:52:24;5.20;;;4.77;;
19664;SDS011;9980;51.020;7.772;2023-08-30T11:54:52;6.60;;;5.30;;
19664;SDS011;9980;51.020;7.772;2023-08-30T11:57:21;5.87;;;5.27;;
19664;SDS011;9980;51.020;7.772;2023-08-30T11:59:48;5.87;;;5.27;;
19664;SDS011;9980;51.020;7.772;2023-08-30T12:02:16;6.30;;;5.70;;
19664;SDS011;9980;51.020;7.772;2023-08-30T12:04:45;10.23;;;5.77;;
19664;SDS011;9980;51.020;7.772;2023-08-30T12:07:26;7.13;;;6.17;;
19664;SDS011;9980;51.020;7.772;2023-08-30T12:10:06;6.77;;;6.17;;
19664;SDS011;9980;51.020;7.772;2023-08-30T12:12:37;6.63;;;5.93;;
19664;SDS011;9980;51.020;7.772;2023-08-30T12:15:08;8.97;;;6.03;;
19664;SDS011;9980;51.020;7.772;2023-08-30T12:17:39;8.33;;;5.67;;
19664;SDS011;9980;51.020;7.772;2023-08-30T12:20:13;5.80;;;5.17;;
19664;SDS011;9980;51.020;7.772;2023-08-30T12:22:43;5.97;;;5.47;;
19664;SDS011;9980;51.020;7.772;2023-08-30T12:25:20;6.07;;;5.47;;
19664;SDS011;9980;51.020;7.772;2023-08-30T12:27:53;5.97;;;4.90;;
19664;SDS011;9980;51.020;7.772;2023-08-30T12:30:20;6.57;;;5.00;;
19664;SDS011;9980;51.020;7.772;2023-08-30T12:32:47;4.97;;;4.40;;
19664;SDS011;9980;51.020;7.772;2023-08-30T12:35:15;4.50;;;4.10;;
19664;SDS011;9980;51.020;7.772;2023-08-30T12:37:42;6.93;;;4.77;;
19664;SDS011;9980;51.020;7.772;2023-08-30T12:40:10;5.87;;;4.80;;
19664;SDS011;9980;51.020;7.772;2023-08-30T12:42:37;4.37;;;3.90;;
19664;SDS011;9980;51.020;7.772;2023-08-30T12:45:05;5.20;;;4.70;;
19664;SDS011;9980;51.020;7.772;2023-08-30T12:47:33;5.73;;;3.90;;
19664;SDS011;9980;51.020;7.772;2023-08-30T12:50:02;4.30;;;3.90;;
19664;SDS011;9980;51.020;7.772;2023-08-30T12:52:29;4.43;;;3.57;;
19664;SDS011;9980;51.020;7.772;2023-08-30T12:54:56;6.67;;;3.90;;
19664;SDS011;9980;51.020;7.772;2023-08-30T12:57:23;4.20;;;3.80;;
19664;SDS011;9980;51.020;7.772;2023-08-30T12:59:50;3.53;;;3.23;;
19664;SDS011;9980;51.020;7.772;2023-08-30T13:02:17;6.90;;;3.67;;
19664;SDS011;9980;51.020;7.772;2023-08-30T13:04:44;4.83;;;3.37;;
19664;SDS011;9980;51.020;7.772;2023-08-30T13:07:11;4.60;;;3.60;;
19664;SDS011;9980;51.020;7.772;2023-08-30T13:09:38;6.60;;;3.53;;
19664;SDS011;9980;51.020;7.772;2023-08-30T13:12:05;3.70;;;3.40;;
19664;SDS011;9980;51.020;7.772;2023-08-30T13:14:32;4.50;;;4.10;;
19664;SDS011;9980;51.020;7.772;2023-08-30T13:16:59;4.23;;;3.83;;
19664;SDS011;9980;51.020;7.772;2023-08-30T13:19:26;4.77;;;3.50;;
19664;SDS011;9980;51.020;7.772;2023-08-30T13:21:53;4.00;;;3.60;;
19664;SDS011;9980;51.020;7.772;2023-08-30T13:24:21;4.23;;;3.40;;
19664;SDS011;9980;51.020;7.772;2023-08-30T13:26:48;3.53;;;3.23;;
19664;SDS011;9980;51.020;7.772;2023-08-30T13:29:14;4.67;;;2.60;;
19664;SDS011;9980;51.020;7.772;2023-08-30T13:31:44;2.33;;;2.10;;
19664;SDS011;9980;51.020;7.772;2023-08-30T13:34:11;2.00;;;1.80;;
19664;SDS011;9980;51.020;7.772;2023-08-30T13:36:38;2.33;;;1.47;;
19664;SDS011;9980;51.020;7.772;2023-08-30T13:39:05;1.47;;;1.37;;
19664;SDS011;9980;51.020;7.772;2023-08-30T13:41:33;1.63;;;1.53;;
19664;SDS011;9980;51.020;7.772;2023-08-30T13:44:02;1.20;;;1.10;;
19664;SDS011;9980;51.020;7.772;2023-08-30T13:46:30;1.47;;;1.20;;
19664;SDS011;9980;51.020;7.772;2023-08-30T13:48:58;1.30;;;1.20;;
19664;SDS011;9980;51.020;7.772;2023-08-30T13:51:25;1.00;;;1.00;;
19664;SDS011;9980;51.020;7.772;2023-08-30T13:53:52;1.27;;;1.00;;
19664;SDS011;9980;51.020;7.772;2023-08-30T13:56:20;2.33;;;1.10;;
19664;SDS011;9980;51.020;7.772;2023-08-30T13:58:48;1.07;;;0.90;;
19664;SDS011;9980;51.020;7.772;2023-08-30T14:01:16;2.60;;;0.80;;
19664;SDS011;9980;51.020;7.772;2023-08-30T14:03:43;2.07;;;1.10;;
19664;SDS011;9980;51.020;7.772;2023-08-30T14:06:10;1.43;;;1.10;;
19664;SDS011;9980;51.020;7.772;2023-08-30T14:08:38;1.43;;;1.10;;
19664;SDS011;9980;51.020;7.772;2023-08-30T14:11:05;2.13;;;1.00;;
19664;SDS011;9980;51.020;7.772;2023-08-30T14:13:32;0.80;;;0.80;;
19664;SDS011;9980;51.020;7.772;2023-08-30T14:16:00;3.10;;;0.97;;
19664;SDS011;9980;51.020;7.772;2023-08-30T14:18:29;1.30;;;0.90;;
19664;SDS011;9980;51.020;7.772;2023-08-30T14:20:56;0.70;;;0.70;;
19664;SDS011;9980;51.020;7.772;2023-08-30T14:23:25;0.80;;;0.80;;
19664;SDS011;9980;51.020;7.772;2023-08-30T14:25:59;1.90;;;0.90;;
19664;SDS011;9980;51.020;7.772;2023-08-30T14:28:29;0.80;;;0.80;;
19664;SDS011;9980;51.020;7.772;2023-08-30T14:30:56;1.17;;;0.90;;
19664;SDS011;9980;51.020;7.772;2023-08-30T14:33:23;0.80;;;0.80;;
19664;SDS011;9980;51.020;7.772;2023-08-30T14:35:50;0.83;;;0.83;;
19664;SDS011;9980;51.020;7.772;2023-08-30T14:38:17;0.93;;;0.80;;
19664;SDS011;9980;51.020;7.772;2023-08-30T14:40:53;0.97;;;0.97;;
19664;SDS011;9980;51.020;7.772;2023-08-30T14:43:27;1.00;;;0.90;;
19664;SDS011;9980;51.020;7.772;2023-08-30T14:45:59;0.97;;;0.97;;
19664;SDS011;9980;51.020;7.772;2023-08-30T14:48:38;1.80;;;1.00;;
19664;SDS011;9980;51.020;7.772;2023-08-30T14:51:06;2.97;;;0.80;;
19664;SDS011;9980;51.020;7.772;2023-08-30T14:53:33;1.30;;;1.00;;
19664;SDS011;9980;51.020;7.772;2023-08-30T14:56:02;3.47;;;0.90;;
19664;SDS011;9980;51.020;7.772;2023-08-30T14:58:33;1.10;;;0.87;;
19664;SDS011;9980;51.020;7.772;2023-08-30T15:01:02;0.90;;;0.90;;
19664;SDS011;9980;51.020;7.772;2023-08-30T15:03:29;1.83;;;1.10;;
19664;SDS011;9980;51.020;7.772;2023-08-30T15:05:57;1.10;;;1.00;;
19664;SDS011;9980;51.020;7.772;2023-08-30T15:08:25;1.83;;;1.40;;
19664;SDS011;9980;51.020;7.772;2023-08-30T15:10:52;2.13;;;1.33;;
19664;SDS011;9980;51.020;7.772;2023-08-30T15:13:20;2.70;;;1.70;;
19664;SDS011;9980;51.020;7.772;2023-08-30T15:15:47;1.00;;;1.00;;